sensor_id;sensor_type;location;lat;lon;timestamp;P1;durP1;ratioP1;P2;durP2;ratioP2
55589;SDS011;41452;42.780;23.116;2022-11-15T00:01:06;33.75;;;16.27;;
55589;SDS011;41452;42.780;23.116;2022-11-15T00:03:39;37.28;;;17.75;;
55589;SDS011;41452;42.780;23.116;2022-11-15T00:06:04;36.35;;;15.63;;
55589;SDS011;41452;42.780;23.116;2022-11-15T00:08:30;40.17;;;16.65;;
55589;SDS011;41452;42.780;23.116;2022-11-15T00:11:00;45.03;;;16.67;;
55589;SDS011;41452;42.780;23.116;2022-11-15T00:13:27;40.45;;;16.40;;
55589;SDS011;41452;42.780;23.116;2022-11-15T00:15:56;44.65;;;17.23;;
55589;SDS011;41452;42.780;23.116;2022-11-15T00:18:21;41.40;;;18.08;;
55589;SDS011;41452;42.780;23.116;2022-11-15T00:20:47;36.90;;;16.58;;
55589;SDS011;41452;42.780;23.116;2022-11-15T00:23:12;37.83;;;16.38;;
55589;SDS011;41452;42.780;23.116;2022-11-15T00:25:38;41.60;;;17.65;;
55589;SDS011;41452;42.780;23.116;2022-11-15T00:28:03;38.75;;;16.63;;
55589;SDS011;41452;42.780;23.116;2022-11-15T00:30:29;43.78;;;17.38;;
55589;SDS011;41452;42.780;23.116;2022-11-15T00:32:55;39.42;;;17.42;;
55589;SDS011;41452;42.780;23.116;2022-11-15T00:35:20;36.22;;;16.65;;
55589;SDS011;41452;42.780;23.116;2022-11-15T00:37:46;42.08;;;17.02;;
55589;SDS011;41452;42.780;23.116;2022-11-15T00:40:12;39.80;;;16.73;;
55589;SDS011;41452;42.780;23.116;2022-11-15T00:42:39;36.80;;;17.13;;
55589;SDS011;41452;42.780;23.116;2022-11-15T00:45:04;40.72;;;17.88;;
55589;SDS011;41452;42.780;23.116;2022-11-15T00:47:30;42.63;;;18.05;;
55589;SDS011;41452;42.780;23.116;2022-11-15T00:49:55;39.92;;;16.25;;
55589;SDS011;41452;42.780;23.116;2022-11-15T00:52:21;42.22;;;15.32;;
55589;SDS011;41452;42.780;23.116;2022-11-15T00:54:46;34.08;;;15.48;;
55589;SDS011;41452;42.780;23.116;2022-11-15T00:57:11;34.30;;;16.02;;
55589;SDS011;41452;42.780;23.116;2022-11-15T00:59:37;41.90;;;18.15;;
55589;SDS011;41452;42.780;23.116;2022-11-15T01:02:02;45.60;;;16.48;;
55589;SDS011;41452;42.780;23.116;2022-11-15T01:04:27;35.45;;;15.82;;
55589;SDS011;41452;42.780;23.116;2022-11-15T01:06:53;40.90;;;16.25;;
55589;SDS011;41452;42.780;23.116;2022-11-15T01:09:18;44.85;;;15.65;;
55589;SDS011;41452;42.780;23.116;2022-11-15T01:11:43;38.50;;;15.82;;
55589;SDS011;41452;42.780;23.116;2022-11-15T01:14:09;33.13;;;15.13;;
55589;SDS011;41452;42.780;23.116;2022-11-15T01:16:34;39.67;;;16.27;;
55589;SDS011;41452;42.780;23.116;2022-11-15T01:19:00;37.95;;;15.40;;
55589;SDS011;41452;42.780;23.116;2022-11-15T01:21:25;33.83;;;15.13;;
55589;SDS011;41452;42.780;23.116;2022-11-15T01:23:54;33.72;;;15.70;;
55589;SDS011;41452;42.780;23.116;2022-11-15T01:26:21;45.85;;;16.38;;
55589;SDS011;41452;42.780;23.116;2022-11-15T01:28:47;29.70;;;14.18;;
55589;SDS011;41452;42.780;23.116;2022-11-15T01:31:13;32.55;;;15.18;;
55589;SDS011;41452;42.780;23.116;2022-11-15T01:33:41;30.05;;;13.63;;
55589;SDS011;41452;42.780;23.116;2022-11-15T01:36:07;37.05;;;16.00;;
55589;SDS011;41452;42.780;23.116;2022-11-15T01:38:35;30.83;;;13.57;;
55589;SDS011;41452;42.780;23.116;2022-11-15T01:41:01;36.33;;;14.48;;
55589;SDS011;41452;42.780;23.116;2022-11-15T01:43:28;37.40;;;16.10;;
55589;SDS011;41452;42.780;23.116;2022-11-15T01:45:59;39.63;;;15.98;;
55589;SDS011;41452;42.780;23.116;2022-11-15T01:48:33;38.60;;;14.73;;
55589;SDS011;41452;42.780;23.116;2022-11-15T01:51:00;32.17;;;14.25;;
55589;SDS011;41452;42.780;23.116;2022-11-15T01:53:29;35.30;;;14.15;;
55589;SDS011;41452;42.780;23.116;2022-11-15T01:55:58;27.00;;;13.45;;
55589;SDS011;41452;42.780;23.116;2022-11-15T01:58:26;35.83;;;15.63;;
55589;SDS011;41452;42.780;23.116;2022-11-15T02:00:52;31.85;;;14.55;;
55589;SDS011;41452;42.780;23.116;2022-11-15T02:03:17;34.05;;;14.35;;
55589;SDS011;41452;42.780;23.116;2022-11-15T02:05:44;33.50;;;13.80;;
55589;SDS011;41452;42.780;23.116;2022-11-15T02:08:09;33.28;;;14.73;;
55589;SDS011;41452;42.780;23.116;2022-11-15T02:10:44;36.95;;;15.20;;
55589;SDS011;41452;42.780;23.116;2022-11-15T02:13:14;29.63;;;13.55;;
55589;SDS011;41452;42.780;23.116;2022-11-15T02:15:46;32.63;;;13.85;;
55589;SDS011;41452;42.780;23.116;2022-11-15T02:18:35;33.92;;;13.82;;
55589;SDS011;41452;42.780;23.116;2022-11-15T02:24:00;28.50;;;13.25;;
55589;SDS011;41452;42.780;23.116;2022-11-15T02:32:44;35.03;;;14.32;;
55589;SDS011;41452;42.780;23.116;2022-11-15T02:43:10;35.38;;;13.68;;
55589;SDS011;41452;42.780;23.116;2022-11-15T02:46:00;32.55;;;13.75;;
55589;SDS011;41452;42.780;23.116;2022-11-15T02:48:31;39.70;;;15.20;;
55589;SDS011;41452;42.780;23.116;2022-11-15T02:50:58;32.80;;;13.48;;
55589;SDS011;41452;42.780;23.116;2022-11-15T02:53:25;35.53;;;15.45;;
55589;SDS011;41452;42.780;23.116;2022-11-15T02:55:51;30.73;;;13.80;;
55589;SDS011;41452;42.780;23.116;2022-11-15T02:58:35;34.38;;;13.77;;
55589;SDS011;41452;42.780;23.116;2022-11-15T03:01:07;30.40;;;13.52;;
55589;SDS011;41452;42.780;23.116;2022-11-15T03:04:10;32.13;;;11.73;;
55589;SDS011;41452;42.780;23.116;2022-11-15T03:06:42;32.78;;;13.30;;
55589;SDS011;41452;42.780;23.116;2022-11-15T03:09:34;36.00;;;14.07;;
55589;SDS011;41452;42.780;23.116;2022-11-15T03:12:40;32.17;;;13.18;;
55589;SDS011;41452;42.780;23.116;2022-11-15T03:15:08;33.45;;;13.65;;
55589;SDS011;41452;42.780;23.116;2022-11-15T03:17:57;31.20;;;14.73;;
55589;SDS011;41452;42.780;23.116;2022-11-15T03:20:32;30.73;;;14.70;;
55589;SDS011;41452;42.780;23.116;2022-11-15T03:23:00;33.30;;;14.23;;
55589;SDS011;41452;42.780;23.116;2022-11-15T03:25:33;35.60;;;14.52;;
55589;SDS011;41452;42.780;23.116;2022-11-15T03:28:03;30.88;;;12.70;;
55589;SDS011;41452;42.780;23.116;2022-11-15T03:30:30;31.77;;;13.10;;
55589;SDS011;41452;42.780;23.116;2022-11-15T03:32:59;35.55;;;13.88;;
55589;SDS011;41452;42.780;23.116;2022-11-15T03:35:29;39.70;;;14.82;;
55589;SDS011;41452;42.780;23.116;2022-11-15T03:38:10;36.22;;;14.70;;
55589;SDS011;41452;42.780;23.116;2022-11-15T03:40:42;36.08;;;14.30;;
55589;SDS011;41452;42.780;23.116;2022-11-15T03:45:46;32.95;;;14.98;;
55589;SDS011;41452;42.780;23.116;2022-11-15T03:48:24;36.10;;;13.82;;
55589;SDS011;41452;42.780;23.116;2022-11-15T03:50:52;35.75;;;14.27;;
55589;SDS011;41452;42.780;23.116;2022-11-15T03:53:18;38.08;;;14.95;;
55589;SDS011;41452;42.780;23.116;2022-11-15T03:55:44;41.83;;;17.23;;
55589;SDS011;41452;42.780;23.116;2022-11-15T03:58:09;37.53;;;15.05;;
55589;SDS011;41452;42.780;23.116;2022-11-15T04:00:35;32.42;;;14.88;;
55589;SDS011;41452;42.780;23.116;2022-11-15T04:03:00;33.30;;;14.05;;
55589;SDS011;41452;42.780;23.116;2022-11-15T04:05:26;40.10;;;14.40;;
55589;SDS011;41452;42.780;23.116;2022-11-15T04:07:51;45.28;;;18.27;;
55589;SDS011;41452;42.780;23.116;2022-11-15T04:10:16;37.53;;;16.77;;
55589;SDS011;41452;42.780;23.116;2022-11-15T04:12:43;46.63;;;16.88;;
55589;SDS011;41452;42.780;23.116;2022-11-15T04:15:13;55.00;;;18.08;;
55589;SDS011;41452;42.780;23.116;2022-11-15T04:20:10;53.53;;;18.92;;
55589;SDS011;41452;42.780;23.116;2022-11-15T04:22:57;51.67;;;18.83;;
55589;SDS011;41452;42.780;23.116;2022-11-15T04:25:42;55.97;;;20.83;;
55589;SDS011;41452;42.780;23.116;2022-11-15T04:28:09;53.20;;;18.38;;
55589;SDS011;41452;42.780;23.116;2022-11-15T04:30:34;57.90;;;17.75;;
55589;SDS011;41452;42.780;23.116;2022-11-15T04:33:00;46.90;;;19.15;;
55589;SDS011;41452;42.780;23.116;2022-11-15T04:35:25;54.90;;;18.98;;
55589;SDS011;41452;42.780;23.116;2022-11-15T04:37:51;45.63;;;17.90;;
55589;SDS011;41452;42.780;23.116;2022-11-15T04:40:17;65.15;;;20.90;;
55589;SDS011;41452;42.780;23.116;2022-11-15T04:42:42;57.67;;;19.90;;
55589;SDS011;41452;42.780;23.116;2022-11-15T04:45:08;60.83;;;19.10;;
55589;SDS011;41452;42.780;23.116;2022-11-15T04:47:33;57.50;;;20.10;;
55589;SDS011;41452;42.780;23.116;2022-11-15T04:49:59;47.47;;;17.13;;
55589;SDS011;41452;42.780;23.116;2022-11-15T04:52:24;57.28;;;19.00;;
55589;SDS011;41452;42.780;23.116;2022-11-15T04:54:50;54.22;;;19.00;;
55589;SDS011;41452;42.780;23.116;2022-11-15T04:57:15;46.58;;;18.20;;
55589;SDS011;41452;42.780;23.116;2022-11-15T04:59:41;41.85;;;18.30;;
55589;SDS011;41452;42.780;23.116;2022-11-15T05:02:06;56.70;;;20.10;;
55589;SDS011;41452;42.780;23.116;2022-11-15T05:04:31;52.42;;;19.45;;
55589;SDS011;41452;42.780;23.116;2022-11-15T05:06:57;55.20;;;20.02;;
55589;SDS011;41452;42.780;23.116;2022-11-15T05:09:22;54.17;;;18.00;;
55589;SDS011;41452;42.780;23.116;2022-11-15T05:11:47;52.42;;;18.40;;
55589;SDS011;41452;42.780;23.116;2022-11-15T05:14:13;50.05;;;15.95;;
55589;SDS011;41452;42.780;23.116;2022-11-15T05:16:39;51.38;;;17.50;;
55589;SDS011;41452;42.780;23.116;2022-11-15T05:19:05;63.63;;;19.48;;
55589;SDS011;41452;42.780;23.116;2022-11-15T05:21:31;58.00;;;17.75;;
55589;SDS011;41452;42.780;23.116;2022-11-15T05:23:57;50.83;;;18.88;;
55589;SDS011;41452;42.780;23.116;2022-11-15T05:26:23;55.70;;;19.40;;
55589;SDS011;41452;42.780;23.116;2022-11-15T05:28:52;80.40;;;22.52;;
55589;SDS011;41452;42.780;23.116;2022-11-15T05:31:18;62.97;;;20.58;;
55589;SDS011;41452;42.780;23.116;2022-11-15T05:33:44;69.05;;;20.67;;
55589;SDS011;41452;42.780;23.116;2022-11-15T05:36:11;87.93;;;23.80;;
55589;SDS011;41452;42.780;23.116;2022-11-15T05:38:57;89.43;;;24.52;;
55589;SDS011;41452;42.780;23.116;2022-11-15T05:41:27;81.20;;;25.42;;
55589;SDS011;41452;42.780;23.116;2022-11-15T05:43:57;87.45;;;24.73;;
55589;SDS011;41452;42.780;23.116;2022-11-15T05:46:24;99.13;;;25.38;;
55589;SDS011;41452;42.780;23.116;2022-11-15T05:48:51;81.97;;;24.17;;
55589;SDS011;41452;42.780;23.116;2022-11-15T05:51:18;97.50;;;26.08;;
55589;SDS011;41452;42.780;23.116;2022-11-15T05:53:45;86.80;;;25.23;;
55589;SDS011;41452;42.780;23.116;2022-11-15T05:56:11;89.22;;;27.25;;
55589;SDS011;41452;42.780;23.116;2022-11-15T05:58:37;96.18;;;28.80;;
55589;SDS011;41452;42.780;23.116;2022-11-15T06:01:03;83.43;;;24.63;;
55589;SDS011;41452;42.780;23.116;2022-11-15T06:03:29;106.32;;;28.70;;
55589;SDS011;41452;42.780;23.116;2022-11-15T06:05:54;109.60;;;27.67;;
55589;SDS011;41452;42.780;23.116;2022-11-15T06:08:19;96.45;;;30.42;;
55589;SDS011;41452;42.780;23.116;2022-11-15T06:10:45;88.72;;;28.45;;
55589;SDS011;41452;42.780;23.116;2022-11-15T06:13:10;103.80;;;30.98;;
55589;SDS011;41452;42.780;23.116;2022-11-15T06:15:35;129.95;;;31.90;;
55589;SDS011;41452;42.780;23.116;2022-11-15T06:18:01;115.90;;;30.40;;
55589;SDS011;41452;42.780;23.116;2022-11-15T06:20:27;92.50;;;26.58;;
55589;SDS011;41452;42.780;23.116;2022-11-15T06:23:00;99.93;;;26.48;;
55589;SDS011;41452;42.780;23.116;2022-11-15T06:25:27;80.57;;;22.42;;
55589;SDS011;41452;42.780;23.116;2022-11-15T06:40:52;106.03;;;21.02;;
55589;SDS011;41452;42.780;23.116;2022-11-15T06:43:17;83.70;;;19.83;;
55589;SDS011;41452;42.780;23.116;2022-11-15T06:45:43;74.45;;;19.00;;
55589;SDS011;41452;42.780;23.116;2022-11-15T06:48:08;48.33;;;15.77;;
55589;SDS011;41452;42.780;23.116;2022-11-15T06:50:33;51.53;;;15.65;;
55589;SDS011;41452;42.780;23.116;2022-11-15T06:53:05;46.88;;;14.77;;
55589;SDS011;41452;42.780;23.116;2022-11-15T06:55:30;42.45;;;14.70;;
55589;SDS011;41452;42.780;23.116;2022-11-15T06:57:56;39.55;;;11.95;;
55589;SDS011;41452;42.780;23.116;2022-11-15T07:00:21;47.63;;;11.80;;
55589;SDS011;41452;42.780;23.116;2022-11-15T07:02:47;40.20;;;13.20;;
55589;SDS011;41452;42.780;23.116;2022-11-15T07:05:13;31.02;;;11.23;;
55589;SDS011;41452;42.780;23.116;2022-11-15T07:07:40;38.08;;;11.82;;
55589;SDS011;41452;42.780;23.116;2022-11-15T07:10:05;33.83;;;11.13;;
55589;SDS011;41452;42.780;23.116;2022-11-15T07:12:32;36.40;;;12.52;;
55589;SDS011;41452;42.780;23.116;2022-11-15T07:14:58;42.03;;;15.55;;
55589;SDS011;41452;42.780;23.116;2022-11-15T07:17:23;45.28;;;14.93;;
55589;SDS011;41452;42.780;23.116;2022-11-15T07:19:49;41.05;;;14.70;;
55589;SDS011;41452;42.780;23.116;2022-11-15T07:22:14;47.85;;;15.15;;
55589;SDS011;41452;42.780;23.116;2022-11-15T07:24:39;48.58;;;15.48;;
55589;SDS011;41452;42.780;23.116;2022-11-15T07:27:05;37.13;;;14.27;;
55589;SDS011;41452;42.780;23.116;2022-11-15T07:29:30;43.83;;;16.33;;
55589;SDS011;41452;42.780;23.116;2022-11-15T07:31:55;47.03;;;14.95;;
55589;SDS011;41452;42.780;23.116;2022-11-15T07:34:21;51.10;;;16.88;;
55589;SDS011;41452;42.780;23.116;2022-11-15T07:36:47;55.75;;;18.30;;
55589;SDS011;41452;42.780;23.116;2022-11-15T07:39:12;55.40;;;18.50;;
55589;SDS011;41452;42.780;23.116;2022-11-15T07:41:39;57.75;;;19.45;;
55589;SDS011;41452;42.780;23.116;2022-11-15T07:44:04;47.08;;;18.08;;
55589;SDS011;41452;42.780;23.116;2022-11-15T07:46:30;59.42;;;17.92;;
55589;SDS011;41452;42.780;23.116;2022-11-15T07:48:56;60.33;;;17.73;;
55589;SDS011;41452;42.780;23.116;2022-11-15T07:51:21;45.65;;;18.45;;
55589;SDS011;41452;42.780;23.116;2022-11-15T07:53:47;51.47;;;17.38;;
55589;SDS011;41452;42.780;23.116;2022-11-15T07:56:12;57.38;;;18.88;;
55589;SDS011;41452;42.780;23.116;2022-11-15T07:58:38;52.40;;;17.92;;
55589;SDS011;41452;42.780;23.116;2022-11-15T08:01:04;55.08;;;19.17;;
55589;SDS011;41452;42.780;23.116;2022-11-15T08:03:30;55.08;;;17.83;;
55589;SDS011;41452;42.780;23.116;2022-11-15T08:05:55;51.10;;;18.38;;
55589;SDS011;41452;42.780;23.116;2022-11-15T08:08:21;54.40;;;17.73;;
55589;SDS011;41452;42.780;23.116;2022-11-15T08:10:47;51.92;;;19.00;;
55589;SDS011;41452;42.780;23.116;2022-11-15T08:13:12;59.72;;;20.35;;
55589;SDS011;41452;42.780;23.116;2022-11-15T08:15:38;56.80;;;18.02;;
55589;SDS011;41452;42.780;23.116;2022-11-15T08:18:05;66.93;;;19.88;;
55589;SDS011;41452;42.780;23.116;2022-11-15T08:20:34;53.05;;;18.35;;
55589;SDS011;41452;42.780;23.116;2022-11-15T08:23:02;51.60;;;16.38;;
55589;SDS011;41452;42.780;23.116;2022-11-15T08:25:29;59.90;;;18.52;;
55589;SDS011;41452;42.780;23.116;2022-11-15T08:27:57;83.82;;;18.52;;
55589;SDS011;41452;42.780;23.116;2022-11-15T08:30:24;81.38;;;18.98;;
55589;SDS011;41452;42.780;23.116;2022-11-15T08:32:51;62.35;;;20.65;;
55589;SDS011;41452;42.780;23.116;2022-11-15T08:35:17;66.28;;;21.17;;
55589;SDS011;41452;42.780;23.116;2022-11-15T08:37:44;79.63;;;19.45;;
55589;SDS011;41452;42.780;23.116;2022-11-15T08:40:10;63.33;;;21.30;;
55589;SDS011;41452;42.780;23.116;2022-11-15T08:42:35;65.18;;;19.05;;
55589;SDS011;41452;42.780;23.116;2022-11-15T08:45:01;66.45;;;22.08;;
55589;SDS011;41452;42.780;23.116;2022-11-15T08:47:26;71.72;;;20.23;;
55589;SDS011;41452;42.780;23.116;2022-11-15T08:49:52;79.88;;;19.58;;
55589;SDS011;41452;42.780;23.116;2022-11-15T08:52:17;80.50;;;19.17;;
55589;SDS011;41452;42.780;23.116;2022-11-15T08:54:43;83.45;;;20.92;;
55589;SDS011;41452;42.780;23.116;2022-11-15T08:57:08;59.40;;;20.85;;
55589;SDS011;41452;42.780;23.116;2022-11-15T08:59:34;69.15;;;20.23;;
55589;SDS011;41452;42.780;23.116;2022-11-15T09:02:00;68.05;;;22.30;;
55589;SDS011;41452;42.780;23.116;2022-11-15T09:04:26;59.60;;;20.27;;
55589;SDS011;41452;42.780;23.116;2022-11-15T09:06:51;113.18;;;24.48;;
55589;SDS011;41452;42.780;23.116;2022-11-15T09:09:17;102.40;;;23.13;;
55589;SDS011;41452;42.780;23.116;2022-11-15T09:11:42;76.10;;;21.35;;
55589;SDS011;41452;42.780;23.116;2022-11-15T09:14:10;79.43;;;23.13;;
55589;SDS011;41452;42.780;23.116;2022-11-15T09:16:36;75.47;;;22.10;;
55589;SDS011;41452;42.780;23.116;2022-11-15T09:19:01;72.15;;;22.35;;
55589;SDS011;41452;42.780;23.116;2022-11-15T09:21:28;95.00;;;25.75;;
55589;SDS011;41452;42.780;23.116;2022-11-15T09:23:53;58.85;;;20.85;;
55589;SDS011;41452;42.780;23.116;2022-11-15T09:26:19;81.35;;;22.13;;
55589;SDS011;41452;42.780;23.116;2022-11-15T09:28:44;85.07;;;22.42;;
55589;SDS011;41452;42.780;23.116;2022-11-15T09:31:10;78.50;;;22.58;;
55589;SDS011;41452;42.780;23.116;2022-11-15T09:33:35;70.32;;;20.25;;
55589;SDS011;41452;42.780;23.116;2022-11-15T09:36:01;81.68;;;21.67;;
55589;SDS011;41452;42.780;23.116;2022-11-15T09:38:31;77.72;;;21.63;;
55589;SDS011;41452;42.780;23.116;2022-11-15T10:11:50;78.43;;;20.60;;
55589;SDS011;41452;42.780;23.116;2022-11-15T10:14:23;65.50;;;21.75;;
55589;SDS011;41452;42.780;23.116;2022-11-15T10:24:42;60.50;;;21.98;;
55589;SDS011;41452;42.780;23.116;2022-11-15T10:27:12;58.80;;;20.50;;
55589;SDS011;41452;42.780;23.116;2022-11-15T10:29:42;74.65;;;24.48;;
55589;SDS011;41452;42.780;23.116;2022-11-15T10:32:12;66.00;;;23.15;;
55589;SDS011;41452;42.780;23.116;2022-11-15T10:34:39;60.38;;;22.02;;
55589;SDS011;41452;42.780;23.116;2022-11-15T10:37:04;72.32;;;24.13;;
55589;SDS011;41452;42.780;23.116;2022-11-15T10:39:29;71.28;;;25.02;;
55589;SDS011;41452;42.780;23.116;2022-11-15T10:41:55;67.72;;;23.05;;
55589;SDS011;41452;42.780;23.116;2022-11-15T10:44:26;54.88;;;21.42;;
55589;SDS011;41452;42.780;23.116;2022-11-15T10:49:23;60.38;;;22.48;;
55589;SDS011;41452;42.780;23.116;2022-11-15T10:57:24;76.95;;;26.02;;
55589;SDS011;41452;42.780;23.116;2022-11-15T10:59:57;71.95;;;24.27;;
55589;SDS011;41452;42.780;23.116;2022-11-15T11:05:00;69.80;;;25.20;;
55589;SDS011;41452;42.780;23.116;2022-11-15T11:07:31;70.05;;;26.58;;
55589;SDS011;41452;42.780;23.116;2022-11-15T11:09:59;60.63;;;24.13;;
55589;SDS011;41452;42.780;23.116;2022-11-15T11:12:28;76.47;;;26.63;;
55589;SDS011;41452;42.780;23.116;2022-11-15T11:14:56;73.05;;;27.60;;
55589;SDS011;41452;42.780;23.116;2022-11-15T11:27:59;73.22;;;27.48;;
55589;SDS011;41452;42.780;23.116;2022-11-15T11:33:32;59.05;;;23.75;;
55589;SDS011;41452;42.780;23.116;2022-11-15T11:38:38;59.15;;;24.08;;
55589;SDS011;41452;42.780;23.116;2022-11-15T11:49:10;67.78;;;26.75;;
55589;SDS011;41452;42.780;23.116;2022-11-15T11:56:47;77.80;;;27.92;;
55589;SDS011;41452;42.780;23.116;2022-11-15T12:01:51;76.93;;;29.90;;
55589;SDS011;41452;42.780;23.116;2022-11-15T12:06:56;80.18;;;30.65;;
55589;SDS011;41452;42.780;23.116;2022-11-15T12:17:08;76.47;;;31.67;;
55589;SDS011;41452;42.780;23.116;2022-11-15T12:19:41;84.75;;;32.15;;
55589;SDS011;41452;42.780;23.116;2022-11-15T12:24:43;84.15;;;31.60;;
55589;SDS011;41452;42.780;23.116;2022-11-15T12:30:02;82.88;;;30.25;;
55589;SDS011;41452;42.780;23.116;2022-11-15T12:32:35;93.75;;;32.38;;
55589;SDS011;41452;42.780;23.116;2022-11-15T12:35:34;85.47;;;32.17;;
55589;SDS011;41452;42.780;23.116;2022-11-15T12:38:08;97.57;;;35.55;;
55589;SDS011;41452;42.780;23.116;2022-11-15T12:40:36;93.20;;;35.13;;
55589;SDS011;41452;42.780;23.116;2022-11-15T12:43:04;99.90;;;36.88;;
55589;SDS011;41452;42.780;23.116;2022-11-15T12:45:37;109.80;;;37.50;;
55589;SDS011;41452;42.780;23.116;2022-11-15T12:50:59;101.00;;;37.30;;
55589;SDS011;41452;42.780;23.116;2022-11-15T12:58:44;110.07;;;38.80;;
55589;SDS011;41452;42.780;23.116;2022-11-15T13:09:50;114.75;;;43.67;;
55589;SDS011;41452;42.780;23.116;2022-11-15T13:12:09;109.50;;;40.70;;
55589;SDS011;41452;42.780;23.116;2022-11-15T13:17:22;116.82;;;41.33;;
55589;SDS011;41452;42.780;23.116;2022-11-15T13:20:00;109.57;;;40.38;;
55589;SDS011;41452;42.780;23.116;2022-11-15T13:22:38;108.22;;;38.30;;
55589;SDS011;41452;42.780;23.116;2022-11-15T13:30:51;108.05;;;39.72;;
55589;SDS011;41452;42.780;23.116;2022-11-15T13:35:58;116.43;;;40.13;;
55589;SDS011;41452;42.780;23.116;2022-11-15T13:40:55;105.88;;;39.47;;
55589;SDS011;41452;42.780;23.116;2022-11-15T13:46:30;100.22;;;38.65;;
55589;SDS011;41452;42.780;23.116;2022-11-15T13:49:03;92.95;;;38.97;;
55589;SDS011;41452;42.780;23.116;2022-11-15T13:56:56;113.53;;;39.88;;
55589;SDS011;41452;42.780;23.116;2022-11-15T13:59:27;97.10;;;38.10;;
55589;SDS011;41452;42.780;23.116;2022-11-15T14:01:57;100.35;;;38.60;;
55589;SDS011;41452;42.780;23.116;2022-11-15T14:04:26;117.75;;;46.97;;
55589;SDS011;41452;42.780;23.116;2022-11-15T14:06:59;117.85;;;44.58;;
55589;SDS011;41452;42.780;23.116;2022-11-15T14:09:39;102.47;;;44.63;;
55589;SDS011;41452;42.780;23.116;2022-11-15T14:15:19;104.37;;;42.27;;
55589;SDS011;41452;42.780;23.116;2022-11-15T14:17:50;95.75;;;38.53;;
55589;SDS011;41452;42.780;23.116;2022-11-15T14:20:31;103.47;;;38.08;;
55589;SDS011;41452;42.780;23.116;2022-11-15T14:23:02;91.97;;;35.13;;
55589;SDS011;41452;42.780;23.116;2022-11-15T14:25:30;97.32;;;36.55;;
55589;SDS011;41452;42.780;23.116;2022-11-15T14:28:11;91.57;;;36.95;;
55589;SDS011;41452;42.780;23.116;2022-11-15T14:30:46;79.03;;;34.92;;
55589;SDS011;41452;42.780;23.116;2022-11-15T14:33:26;99.20;;;41.53;;
55589;SDS011;41452;42.780;23.116;2022-11-15T14:35:54;99.05;;;39.45;;
55589;SDS011;41452;42.780;23.116;2022-11-15T14:38:22;85.40;;;36.55;;
55589;SDS011;41452;42.780;23.116;2022-11-15T14:40:48;97.40;;;37.58;;
55589;SDS011;41452;42.780;23.116;2022-11-15T14:43:13;94.00;;;36.72;;
55589;SDS011;41452;42.780;23.116;2022-11-15T14:45:39;93.80;;;34.42;;
55589;SDS011;41452;42.780;23.116;2022-11-15T14:48:05;90.13;;;36.30;;
55589;SDS011;41452;42.780;23.116;2022-11-15T14:50:31;92.43;;;39.05;;
55589;SDS011;41452;42.780;23.116;2022-11-15T14:52:58;95.72;;;37.25;;
55589;SDS011;41452;42.780;23.116;2022-11-15T14:55:24;111.97;;;40.78;;
55589;SDS011;41452;42.780;23.116;2022-11-15T14:57:53;80.72;;;34.15;;
55589;SDS011;41452;42.780;23.116;2022-11-15T15:00:19;88.00;;;35.35;;
55589;SDS011;41452;42.780;23.116;2022-11-15T15:02:45;90.50;;;35.15;;
55589;SDS011;41452;42.780;23.116;2022-11-15T15:05:19;79.60;;;32.22;;
55589;SDS011;41452;42.780;23.116;2022-11-15T15:07:49;78.00;;;31.67;;
55589;SDS011;41452;42.780;23.116;2022-11-15T15:10:16;78.05;;;35.42;;
55589;SDS011;41452;42.780;23.116;2022-11-15T15:12:42;101.45;;;36.72;;
55589;SDS011;41452;42.780;23.116;2022-11-15T15:15:15;87.75;;;34.53;;
55589;SDS011;41452;42.780;23.116;2022-11-15T15:17:42;87.32;;;32.95;;
55589;SDS011;41452;42.780;23.116;2022-11-15T15:20:08;73.55;;;34.05;;
55589;SDS011;41452;42.780;23.116;2022-11-15T15:22:35;96.15;;;36.97;;
55589;SDS011;41452;42.780;23.116;2022-11-15T15:25:01;92.40;;;39.45;;
55589;SDS011;41452;42.780;23.116;2022-11-15T15:27:27;95.97;;;37.50;;
55589;SDS011;41452;42.780;23.116;2022-11-15T15:29:52;90.53;;;37.40;;
55589;SDS011;41452;42.780;23.116;2022-11-15T15:32:18;136.75;;;51.55;;
55589;SDS011;41452;42.780;23.116;2022-11-15T15:34:43;140.18;;;54.92;;
55589;SDS011;41452;42.780;23.116;2022-11-15T15:39:55;145.23;;;58.70;;
55589;SDS011;41452;42.780;23.116;2022-11-15T15:42:22;126.20;;;50.45;;
55589;SDS011;41452;42.780;23.116;2022-11-15T15:44:48;121.28;;;48.50;;
55589;SDS011;41452;42.780;23.116;2022-11-15T15:47:19;126.50;;;49.85;;
55589;SDS011;41452;42.780;23.116;2022-11-15T15:49:47;103.95;;;43.70;;
55589;SDS011;41452;42.780;23.116;2022-11-15T15:52:13;116.00;;;46.05;;
55589;SDS011;41452;42.780;23.116;2022-11-15T15:54:39;135.80;;;47.50;;
55589;SDS011;41452;42.780;23.116;2022-11-15T15:57:05;98.15;;;39.78;;
55589;SDS011;41452;42.780;23.116;2022-11-15T15:59:31;106.28;;;40.67;;
55589;SDS011;41452;42.780;23.116;2022-11-15T16:01:57;122.70;;;42.15;;
55589;SDS011;41452;42.780;23.116;2022-11-15T16:04:22;137.63;;;44.72;;
55589;SDS011;41452;42.780;23.116;2022-11-15T16:06:47;135.40;;;46.55;;
55589;SDS011;41452;42.780;23.116;2022-11-15T16:09:15;110.93;;;43.00;;
55589;SDS011;41452;42.780;23.116;2022-11-15T16:11:43;94.15;;;40.13;;
55589;SDS011;41452;42.780;23.116;2022-11-15T16:14:09;147.82;;;52.40;;
55589;SDS011;41452;42.780;23.116;2022-11-15T16:16:35;234.30;;;78.63;;
55589;SDS011;41452;42.780;23.116;2022-11-15T16:19:01;169.07;;;58.90;;
55589;SDS011;41452;42.780;23.116;2022-11-15T16:21:27;189.63;;;66.05;;
55589;SDS011;41452;42.780;23.116;2022-11-15T16:23:53;141.98;;;51.97;;
55589;SDS011;41452;42.780;23.116;2022-11-15T16:26:22;130.23;;;49.38;;
55589;SDS011;41452;42.780;23.116;2022-11-15T16:28:50;130.52;;;48.25;;
55589;SDS011;41452;42.780;23.116;2022-11-15T16:31:15;167.88;;;56.28;;
55589;SDS011;41452;42.780;23.116;2022-11-15T16:33:43;153.60;;;52.08;;
55589;SDS011;41452;42.780;23.116;2022-11-15T16:36:27;127.97;;;48.90;;
55589;SDS011;41452;42.780;23.116;2022-11-15T16:38:56;110.60;;;44.38;;
55589;SDS011;41452;42.780;23.116;2022-11-15T16:41:21;87.82;;;37.10;;
55589;SDS011;41452;42.780;23.116;2022-11-15T16:43:47;104.47;;;40.03;;
55589;SDS011;41452;42.780;23.116;2022-11-15T16:46:19;99.30;;;39.85;;
55589;SDS011;41452;42.780;23.116;2022-11-15T16:48:47;93.72;;;37.33;;
55589;SDS011;41452;42.780;23.116;2022-11-15T16:51:13;89.97;;;35.33;;
55589;SDS011;41452;42.780;23.116;2022-11-15T16:53:39;96.45;;;38.22;;
55589;SDS011;41452;42.780;23.116;2022-11-15T16:56:16;91.53;;;36.78;;
55589;SDS011;41452;42.780;23.116;2022-11-15T16:58:45;97.82;;;39.17;;
55589;SDS011;41452;42.780;23.116;2022-11-15T17:01:32;92.63;;;36.00;;
55589;SDS011;41452;42.780;23.116;2022-11-15T17:03:57;162.23;;;50.45;;
55589;SDS011;41452;42.780;23.116;2022-11-15T17:06:23;117.82;;;40.45;;
55589;SDS011;41452;42.780;23.116;2022-11-15T17:08:50;86.15;;;34.38;;